createdAt,value
2023-01-29T00:02:08.897Z,89.16
2023-01-29T00:04:40.777Z,89.57
2023-01-29T00:07:12.704Z,88.98
2023-01-29T00:09:43.046Z,88.93
2023-01-29T00:12:17.613Z,90.00
2023-01-29T00:14:53.230Z,89.67
2023-01-29T00:17:28.087Z,88.16
2023-01-29T00:20:00.968Z,89.42
2023-01-29T00:22:31.487Z,90.04
2023-01-29T00:25:04.557Z,90.56
2023-01-29T00:27:34.153Z,90.74
2023-01-29T00:30:14.356Z,91.24
2023-01-29T00:32:42.405Z,91.52
2023-01-29T00:35:11.535Z,91.28
2023-01-29T00:37:44.393Z,91.73
2023-01-29T00:40:11.624Z,92.06
2023-01-29T00:42:59.952Z,92.20
2023-01-29T00:45:27.911Z,91.31
2023-01-29T00:47:59.943Z,91.93
2023-01-29T00:50:39.530Z,92.28
2023-01-29T00:53:06.377Z,91.90
2023-01-29T00:55:39.195Z,92.04
2023-01-29T00:58:10.736Z,91.56
2023-01-29T01:00:40.544Z,91.70
2023-01-29T01:03:11.692Z,91.86
2023-01-29T01:05:43.920Z,92.22
2023-01-29T01:08:31.911Z,92.74
2023-01-29T01:11:06.113Z,93.05
2023-01-29T01:13:34.565Z,93.05
2023-01-29T01:16:01.690Z,93.64
2023-01-29T01:18:38.900Z,93.10
2023-01-29T01:21:21.491Z,93.35
2023-01-29T01:24:11.729Z,93.02
2023-01-29T01:26:49.621Z,93.40
2023-01-29T01:32:11.175Z,93.59
2023-01-29T01:34:43.370Z,93.84
2023-01-29T01:37:11.154Z,94.14
2023-01-29T01:39:40.372Z,93.94
2023-01-29T01:42:18.529Z,95.25
2023-01-29T01:45:14.213Z,94.33
2023-01-29T01:48:15.079Z,95.44
2023-01-29T01:50:56.929Z,95.54
2023-01-29T01:53:39.471Z,96.21
2023-01-29T01:56:14.832Z,96.36
2023-01-29T01:58:55.941Z,96.35
2023-01-29T02:01:28.271Z,96.04
2023-01-29T02:04:20.666Z,96.44
2023-01-29T02:07:06.542Z,96.06
2023-01-29T02:09:39.082Z,95.36
2023-01-29T02:12:11.904Z,96.43
2023-01-29T02:14:40.422Z,97.08
2023-01-29T02:17:09.026Z,97.18
2023-01-29T02:20:17.984Z,97.50
2023-01-29T02:23:23.123Z,97.98
2023-01-29T02:26:19.564Z,98.05
2023-01-29T02:29:22.635Z,97.94
2023-01-29T02:31:58.206Z,97.64
2023-01-29T02:35:04.688Z,97.57
2023-01-29T02:37:39.513Z,98.03
2023-01-29T02:40:14.073Z,97.84
2023-01-29T02:42:54.030Z,97.77
2023-01-29T02:45:49.538Z,98.19
2023-01-29T02:48:20.540Z,98.05
2023-01-29T02:50:54.608Z,98.07
2023-01-29T02:53:38.944Z,98.87
2023-01-29T02:56:11.385Z,98.87
2023-01-29T02:58:49.951Z,98.55
2023-01-29T03:01:21.446Z,99.11
2023-01-29T03:03:53.731Z,98.73
2023-01-29T03:06:28.540Z,99.14
2023-01-29T03:09:00.365Z,98.73
2023-01-29T03:11:34.555Z,98.04
2023-01-29T03:14:06.378Z,98.34
2023-01-29T03:16:39.979Z,99.15
2023-01-29T03:19:13.868Z,99.15
2023-01-29T03:21:55.447Z,99.02
2023-01-29T03:25:08.169Z,97.88
2023-01-29T03:28:02.245Z,95.38
2023-01-29T03:30:49.291Z,94.73
2023-01-29T03:33:18.900Z,95.26
2023-01-29T03:35:52.201Z,95.95
2023-01-29T03:38:19.556Z,96.84
2023-01-29T03:40:51.342Z,97.92
2023-01-29T03:43:41.997Z,97.80
2023-01-29T03:46:14.536Z,98.04
2023-01-29T03:48:59.305Z,99.03
2023-01-29T03:51:41.216Z,98.54
2023-01-29T03:54:20.132Z,98.60
2023-01-29T03:57:36.386Z,99.81
2023-01-29T04:00:30.406Z,99.98
2023-01-29T04:03:20.731Z,99.16
2023-01-29T04:06:05.744Z,99.34
2023-01-29T04:08:34.612Z,99.02
2023-01-29T04:11:05.076Z,99.20
2023-01-29T04:13:34.026Z,98.74
2023-01-29T04:16:01.578Z,99.17
2023-01-29T04:18:28.285Z,98.83
2023-01-29T04:20:54.979Z,98.37
2023-01-29T04:23:26.688Z,98.80
2023-01-29T04:26:48.969Z,98.75
2023-01-29T04:29:52.757Z,98.49
2023-01-29T04:32:48.197Z,98.48
2023-01-29T04:35:27.067Z,98.16
2023-01-29T04:38:06.490Z,98.15
2023-01-29T04:41:04.288Z,98.03
2023-01-29T04:43:42.795Z,97.90
2023-01-29T04:46:17.803Z,97.92
2023-01-29T04:49:01.485Z,97.93
2023-01-29T04:51:54.474Z,98.09
2023-01-29T04:54:50.781Z,97.93
2023-01-29T04:57:32.183Z,97.73
2023-01-29T05:00:14.010Z,97.64
2023-01-29T05:02:42.055Z,97.58
2023-01-29T05:05:09.468Z,97.94
2023-01-29T05:07:37.897Z,98.36
2023-01-29T05:10:06.388Z,98.49
2023-01-29T05:12:33.790Z,99.12
2023-01-29T05:15:02.528Z,98.51
2023-01-29T05:17:29.408Z,99.01
2023-01-29T05:19:56.775Z,99.03
2023-01-29T05:22:23.779Z,99.33
2023-01-29T05:24:50.843Z,99.50
2023-01-29T05:27:38.241Z,99.76
2023-01-29T05:30:05.724Z,100.00
2023-01-29T05:32:32.535Z,99.93
2023-01-29T05:34:59.182Z,99.99
2023-01-29T05:37:25.888Z,99.99
2023-01-29T05:39:52.610Z,100.00
2023-01-29T05:42:19.596Z,100.00
2023-01-29T05:44:46.183Z,100.00
2023-01-29T05:47:12.892Z,99.96
2023-01-29T05:49:39.594Z,100.00
2023-01-29T05:52:06.382Z,100.00
2023-01-29T05:54:33.128Z,100.00
2023-01-29T05:56:59.709Z,99.84
2023-01-29T05:59:26.961Z,100.00
2023-01-29T06:01:53.631Z,99.80
2023-01-29T06:04:20.430Z,99.75
2023-01-29T06:06:47.002Z,99.79
2023-01-29T06:09:13.737Z,99.27
2023-01-29T06:11:40.584Z,99.16
2023-01-29T06:14:07.275Z,98.94
2023-01-29T06:16:34.008Z,98.27
2023-01-29T06:19:00.778Z,98.68
2023-01-29T06:21:27.390Z,98.46
2023-01-29T06:23:54.225Z,98.61
2023-01-29T06:26:21.025Z,98.95
2023-01-29T06:28:51.218Z,99.23
2023-01-29T06:31:38.471Z,99.55
2023-01-29T06:34:06.609Z,99.91
2023-01-29T06:36:33.272Z,99.49
2023-01-29T06:39:00.041Z,99.86
2023-01-29T06:41:26.765Z,99.34
2023-01-29T06:43:53.433Z,99.21
2023-01-29T06:46:20.256Z,99.47
2023-01-29T06:48:46.945Z,99.64
2023-01-29T06:51:13.823Z,99.73
2023-01-29T06:53:40.498Z,99.00
2023-01-29T06:56:07.883Z,98.13
2023-01-29T06:58:37.218Z,97.20
2023-01-29T07:01:06.204Z,98.40
2023-01-29T07:03:33.038Z,99.61
2023-01-29T07:05:59.909Z,99.96
2023-01-29T07:08:26.665Z,100.00
2023-01-29T07:10:53.589Z,99.81
2023-01-29T07:13:20.200Z,100.00
2023-01-29T07:15:46.927Z,99.12
2023-01-29T07:18:13.693Z,98.16
2023-01-29T07:20:41.446Z,99.54
2023-01-29T07:23:11.537Z,99.71
2023-01-29T07:25:38.681Z,99.92
2023-01-29T07:28:05.460Z,99.77
2023-01-29T07:30:32.210Z,100.00
2023-01-29T07:33:09.452Z,100.00
2023-01-29T07:35:41.048Z,99.67
2023-01-29T07:38:08.949Z,99.01
2023-01-29T07:40:35.926Z,98.99
2023-01-29T07:43:05.021Z,98.67
2023-01-29T07:45:33.647Z,100.00
2023-01-29T07:48:00.378Z,100.00
2023-01-29T07:50:28.160Z,100.00
2023-01-29T07:52:55.164Z,100.00
2023-01-29T07:55:21.925Z,100.00
2023-01-29T07:57:48.893Z,100.00
2023-01-29T08:00:16.609Z,100.00
2023-01-29T08:02:43.574Z,100.00
2023-01-29T08:05:10.635Z,100.00
2023-01-29T08:07:37.298Z,100.00
2023-01-29T08:10:04.438Z,99.98
2023-01-29T08:12:31.356Z,99.52
2023-01-29T08:14:58.040Z,99.66
2023-01-29T08:17:24.714Z,100.00
2023-01-29T08:19:51.489Z,99.04
2023-01-29T08:22:18.130Z,99.35
2023-01-29T08:24:54.172Z,99.57
2023-01-29T08:27:26.967Z,99.37
2023-01-29T08:29:53.610Z,99.54
2023-01-29T08:32:20.326Z,99.12
2023-01-29T08:34:47.186Z,99.10
2023-01-29T08:37:13.818Z,98.41
2023-01-29T08:42:07.122Z,97.57
2023-01-29T08:44:33.732Z,96.81
2023-01-29T08:47:00.372Z,97.18
2023-01-29T08:49:27.126Z,96.32
2023-01-29T08:51:57.045Z,97.11
2023-01-29T08:54:24.076Z,96.36
2023-01-29T08:56:51.575Z,96.38
2023-01-29T08:59:18.254Z,96.88
2023-01-29T09:01:44.908Z,96.77
2023-01-29T09:04:11.580Z,96.70
2023-01-29T09:06:38.221Z,96.70
2023-01-29T09:09:04.795Z,96.26
2023-01-29T09:11:31.389Z,97.24
2023-01-29T09:13:58.016Z,96.42
2023-01-29T09:16:24.920Z,96.58
2023-01-29T09:18:53.676Z,96.68
2023-01-29T09:21:20.333Z,96.41
2023-01-29T09:23:47.120Z,96.54
2023-01-29T09:26:13.833Z,95.96
2023-01-29T09:28:40.600Z,96.58
2023-01-29T09:31:07.456Z,96.42
2023-01-29T09:33:34.095Z,95.12
2023-01-29T09:36:03.613Z,95.10
2023-01-29T09:38:30.774Z,94.90
2023-01-29T09:41:16.612Z,94.05
2023-01-29T09:43:48.420Z,94.41
2023-01-29T09:46:36.520Z,93.34
2023-01-29T09:49:26.998Z,92.95
2023-01-29T09:51:59.725Z,93.47
2023-01-29T09:54:31.097Z,93.64
2023-01-29T09:56:58.121Z,93.98
2023-01-29T09:59:30.668Z,93.50
2023-01-29T10:02:29.395Z,92.65
2023-01-29T10:05:16.711Z,92.73
2023-01-29T10:08:23.012Z,93.35
2023-01-29T10:11:05.066Z,93.34
2023-01-29T10:14:00.926Z,93.23
2023-01-29T10:16:49.160Z,91.71
2023-01-29T10:20:06.822Z,91.68
2023-01-29T10:22:51.050Z,92.11
2023-01-29T10:25:20.693Z,92.28
2023-01-29T10:27:51.315Z,92.35
2023-01-29T10:30:39.418Z,92.04
2023-01-29T10:33:09.863Z,91.74
2023-01-29T10:35:40.583Z,92.45
2023-01-29T10:38:24.770Z,91.85
2023-01-29T10:41:12.060Z,91.57
2023-01-29T10:44:05.398Z,91.80
2023-01-29T10:47:03.483Z,92.02
2023-01-29T10:50:11.269Z,91.63
2023-01-29T10:53:07.829Z,91.89
2023-01-29T10:56:03.842Z,92.36
2023-01-29T10:58:51.725Z,90.82
2023-01-29T11:01:18.419Z,91.61
2023-01-29T11:03:45.211Z,91.47
2023-01-29T11:06:24.448Z,91.53
2023-01-29T11:09:22.471Z,90.41
2023-01-29T11:11:52.691Z,90.47
2023-01-29T11:14:23.471Z,88.73
2023-01-29T11:16:50.324Z,88.95
2023-01-29T11:19:17.061Z,88.85
2023-01-29T11:22:01.360Z,88.55
2023-01-29T11:24:28.189Z,89.49
2023-01-29T11:26:57.804Z,88.40
2023-01-29T11:29:42.154Z,88.66
2023-01-29T11:32:12.156Z,89.38
2023-01-29T11:34:59.455Z,89.19
2023-01-29T11:37:37.820Z,88.79
2023-01-29T11:40:34.389Z,88.56
2023-01-29T11:43:33.918Z,89.00
2023-01-29T11:46:03.540Z,88.50
2023-01-29T11:48:44.879Z,98.39
2023-01-29T11:51:22.345Z,87.97
2023-01-29T11:54:00.342Z,88.58
2023-01-29T11:56:37.738Z,86.21
2023-01-29T11:59:04.768Z,86.28
2023-01-29T12:01:41.553Z,87.04
2023-01-29T12:04:26.322Z,86.78
2023-01-29T12:06:53.924Z,86.31
2023-01-29T12:09:23.215Z,86.23
2023-01-29T12:11:52.793Z,86.58
2023-01-29T12:14:28.091Z,86.12
2023-01-29T12:17:08.051Z,86.16
2023-01-29T12:19:38.972Z,85.31
2023-01-29T12:22:21.805Z,84.27
2023-01-29T12:25:26.407Z,84.63
2023-01-29T12:28:19.265Z,84.53
2023-01-29T12:31:02.822Z,85.32
2023-01-29T12:34:06.471Z,84.19
2023-01-29T12:36:53.131Z,84.67
2023-01-29T12:39:20.669Z,84.29
2023-01-29T12:42:20.040Z,84.61
2023-01-29T12:45:03.104Z,85.41
2023-01-29T12:47:37.549Z,85.79
2023-01-29T12:50:15.469Z,85.60
2023-01-29T12:52:47.721Z,85.72
2023-01-29T12:55:21.188Z,84.77
2023-01-29T12:57:56.559Z,85.08
2023-01-29T13:00:26.514Z,84.87
2023-01-29T13:03:01.036Z,84.55
2023-01-29T13:05:36.102Z,84.54
2023-01-29T13:08:09.242Z,85.26
2023-01-29T13:10:39.027Z,84.71
2023-01-29T13:13:12.889Z,84.87
2023-01-29T13:15:41.243Z,84.94
2023-01-29T13:18:36.835Z,84.55
2023-01-29T13:21:05.446Z,85.15
2023-01-29T13:23:38.697Z,84.48
2023-01-29T13:26:06.361Z,85.52
2023-01-29T13:28:33.126Z,85.09
2023-01-29T13:31:17.366Z,86.13
2023-01-29T13:33:44.487Z,84.50
2023-01-29T13:36:17.385Z,84.46
2023-01-29T13:38:45.364Z,84.94
2023-01-29T13:41:15.916Z,85.07
2023-01-29T13:43:43.120Z,84.38
2023-01-29T13:46:21.675Z,84.03
2023-01-29T13:48:49.970Z,84.32
2023-01-29T13:51:20.841Z,84.90
2023-01-29T13:53:56.685Z,84.88
2023-01-29T13:56:35.462Z,84.39
2023-01-29T13:59:04.266Z,84.08
2023-01-29T14:02:39.030Z,84.05
2023-01-29T14:05:37.292Z,84.36
2023-01-29T14:08:07.310Z,84.64
2023-01-29T14:10:35.463Z,84.43
2023-01-29T14:13:25.185Z,84.60
2023-01-29T14:15:57.926Z,85.32
2023-01-29T14:18:28.601Z,84.43
2023-01-29T14:21:25.440Z,84.79
2023-01-29T14:23:53.485Z,85.20
2023-01-29T14:26:23.703Z,85.39
2023-01-29T14:29:04.359Z,84.79
2023-01-29T14:31:41.323Z,85.15
2023-01-29T14:34:23.013Z,85.24
2023-01-29T14:36:55.648Z,85.01
2023-01-29T14:39:43.421Z,84.96
2023-01-29T14:42:39.687Z,84.18
2023-01-29T14:45:47.663Z,84.80
2023-01-29T14:48:37.495Z,84.88
2023-01-29T14:51:15.593Z,85.36
2023-01-29T14:53:50.461Z,85.39
2023-01-29T14:56:37.703Z,85.66
2023-01-29T14:59:13.376Z,85.35
2023-01-29T15:01:43.952Z,85.65
2023-01-29T15:04:19.221Z,86.28
2023-01-29T15:06:53.775Z,85.33
2023-01-29T15:09:36.616Z,85.30
2023-01-29T15:12:13.159Z,85.29
2023-01-29T15:14:47.207Z,85.12
2023-01-29T15:17:49.539Z,85.16
2023-01-29T15:20:33.889Z,85.51
2023-01-29T15:23:00.964Z,85.79
2023-01-29T15:25:31.648Z,86.72
2023-01-29T15:27:58.730Z,86.58
2023-01-29T15:30:32.863Z,86.28
2023-01-29T15:33:00.814Z,86.44
2023-01-29T15:35:35.004Z,86.81
2023-01-29T15:38:19.354Z,86.19
2023-01-29T15:40:58.776Z,86.01
2023-01-29T15:43:28.224Z,86.48
2023-01-29T15:46:36.935Z,86.31
2023-01-29T15:49:09.167Z,87.12
2023-01-29T15:51:35.936Z,87.37
2023-01-29T15:54:14.727Z,87.12
2023-01-29T15:56:51.655Z,88.07
2023-01-29T15:59:20.421Z,87.17
2023-01-29T16:01:47.188Z,87.61
2023-01-29T16:04:19.760Z,87.41
2023-01-29T16:06:47.687Z,86.97
2023-01-29T16:09:23.820Z,87.15
2023-01-29T16:11:51.029Z,86.97
2023-01-29T16:14:24.797Z,86.77
2023-01-29T16:16:52.684Z,86.40
2023-01-29T16:19:29.749Z,85.98
2023-01-29T16:22:04.424Z,87.97
2023-01-29T16:24:32.955Z,85.00
2023-01-29T16:27:05.173Z,84.39
2023-01-29T16:29:33.501Z,84.39
2023-01-29T16:32:02.529Z,85.24
2023-01-29T16:34:39.351Z,85.28
2023-01-29T16:37:19.058Z,85.38
2023-01-29T16:39:59.801Z,86.27
2023-01-29T16:42:29.161Z,87.18
2023-01-29T16:45:18.786Z,87.07
2023-01-29T16:47:49.896Z,86.80
2023-01-29T16:50:35.973Z,87.24
2023-01-29T16:53:21.818Z,87.26
2023-01-29T16:55:53.548Z,87.53
2023-01-29T16:58:22.123Z,87.53
2023-01-29T17:01:03.412Z,87.24
2023-01-29T17:03:32.164Z,87.29
2023-01-29T17:05:59.893Z,87.12
2023-01-29T17:08:31.338Z,87.81
2023-01-29T17:10:58.124Z,86.18
2023-01-29T17:13:31.607Z,100.00
2023-01-29T17:16:03.500Z,97.93
2023-01-29T17:18:30.686Z,89.59
2023-01-29T17:20:57.340Z,86.91
2023-01-29T17:23:24.304Z,86.54
2023-01-29T17:25:51.993Z,85.41
2023-01-29T17:28:18.852Z,86.90
2023-01-29T17:30:56.558Z,85.56
2023-01-29T17:33:27.085Z,87.64
2023-01-29T17:35:53.834Z,86.64
2023-01-29T17:38:26.365Z,86.61
2023-01-29T17:40:54.529Z,84.84
2023-01-29T17:43:23.962Z,85.27
2023-01-29T17:45:50.626Z,86.19
2023-01-29T17:48:30.165Z,83.93
2023-01-29T17:51:02.457Z,83.95
2023-01-29T17:53:44.371Z,84.87
2023-01-29T17:56:17.333Z,83.52
2023-01-29T17:58:44.014Z,84.11
2023-01-29T18:01:10.703Z,85.05
2023-01-29T18:03:37.401Z,85.41
2023-01-29T18:06:07.945Z,86.00
2023-01-29T18:08:36.340Z,86.14
2023-01-29T18:11:03.031Z,86.52
2023-01-29T18:13:29.775Z,86.54
2023-01-29T18:16:01.012Z,87.14
2023-01-29T18:18:27.711Z,86.64
2023-01-29T18:20:54.387Z,87.00
2023-01-29T18:23:21.100Z,87.54
2023-01-29T18:25:47.708Z,87.47
2023-01-29T18:28:17.078Z,86.88
2023-01-29T18:30:47.274Z,87.46
2023-01-29T18:33:14.738Z,86.89
2023-01-29T18:35:41.417Z,87.53
2023-01-29T18:38:09.645Z,87.29
2023-01-29T18:40:36.268Z,87.29
2023-01-29T18:43:04.758Z,87.47
2023-01-29T18:45:36.116Z,87.42
2023-01-29T18:48:06.242Z,87.66
2023-01-29T18:50:33.349Z,87.31
2023-01-29T18:53:00.105Z,87.31
2023-01-29T18:55:26.993Z,87.11
2023-01-29T18:58:28.420Z,87.14
2023-01-29T19:00:41.322Z,87.03
2023-01-29T19:03:07.910Z,86.75
2023-01-29T19:05:34.650Z,86.32
2023-01-29T19:08:02.052Z,86.42
2023-01-29T19:10:28.940Z,87.00
2023-01-29T19:12:58.803Z,87.44
2023-01-29T19:15:25.485Z,87.69
2023-01-29T19:17:52.303Z,86.92
2023-01-29T19:20:19.204Z,86.87
2023-01-29T19:22:46.022Z,87.90
2023-01-29T19:25:13.879Z,87.39
2023-01-29T19:27:40.541Z,87.29
2023-01-29T19:30:08.620Z,88.07
2023-01-29T19:32:35.573Z,87.81
2023-01-29T19:35:02.264Z,88.11
2023-01-29T19:37:30.722Z,88.03
2023-01-29T19:39:57.833Z,87.82
2023-01-29T19:42:24.443Z,87.47
2023-01-29T19:44:52.370Z,87.67
2023-01-29T19:47:19.554Z,87.93
2023-01-29T19:49:47.177Z,87.76
2023-01-29T19:52:49.802Z,88.46
2023-01-29T19:55:18.042Z,88.73
2023-01-29T19:57:45.089Z,88.09
2023-01-29T20:00:12.513Z,88.43
2023-01-29T20:02:39.327Z,88.41
2023-01-29T20:05:08.324Z,88.27
2023-01-29T20:07:36.112Z,88.84
2023-01-29T20:10:02.885Z,88.57
2023-01-29T20:12:30.084Z,88.50
2023-01-29T20:15:01.085Z,88.79
2023-01-29T20:17:28.020Z,89.05
2023-01-29T20:19:55.025Z,89.67
2023-01-29T20:22:21.678Z,89.52
2023-01-29T20:24:48.348Z,89.52
2023-01-29T20:27:15.037Z,90.05
2023-01-29T20:29:43.183Z,90.23
2023-01-29T20:32:10.346Z,90.16
2023-01-29T20:34:37.054Z,89.89
2023-01-29T20:37:04.623Z,90.29
2023-01-29T20:39:31.765Z,90.19
2023-01-29T20:41:58.454Z,90.21
2023-01-29T20:44:25.546Z,89.67
2023-01-29T20:46:52.373Z,90.24
2023-01-29T20:49:19.484Z,89.98
2023-01-29T20:51:46.464Z,90.47
2023-01-29T20:54:13.262Z,90.56
2023-01-29T20:56:43.124Z,90.75
2023-01-29T20:59:12.187Z,90.42
2023-01-29T21:01:38.937Z,91.11
2023-01-29T21:04:05.707Z,90.90
2023-01-29T21:06:35.685Z,91.67
2023-01-29T21:09:02.290Z,91.28
2023-01-29T21:11:28.968Z,91.74
2023-01-29T21:13:57.948Z,91.40
2023-01-29T21:16:26.437Z,91.84
2023-01-29T21:18:57.938Z,91.67
2023-01-29T21:21:26.806Z,91.50
2023-01-29T21:23:53.718Z,91.55
2023-01-29T21:26:20.503Z,91.60
2023-01-29T21:28:47.248Z,92.10
2023-01-29T21:31:14.868Z,92.36
2023-01-29T21:33:41.711Z,92.14
2023-01-29T21:36:10.265Z,91.76
2023-01-29T21:38:37.303Z,91.70
2023-01-29T21:41:06.436Z,91.79
2023-01-29T21:43:33.361Z,91.87
2023-01-29T21:46:04.020Z,92.01
2023-01-29T21:48:31.289Z,93.08
2023-01-29T21:50:57.969Z,92.19
2023-01-29T21:53:24.877Z,91.86
2023-01-29T21:55:52.009Z,91.68
2023-01-29T21:58:20.914Z,92.07
2023-01-29T22:00:49.033Z,91.65
2023-01-29T22:03:15.831Z,91.71
2023-01-29T22:05:42.581Z,91.35
2023-01-29T22:08:09.948Z,91.83
2023-01-29T22:10:36.861Z,91.62
2023-01-29T22:13:03.933Z,91.62
2023-01-29T22:15:30.653Z,92.29
2023-01-29T22:17:57.396Z,92.17
2023-01-29T22:20:30.244Z,91.66
2023-01-29T22:23:02.131Z,91.81
2023-01-29T22:25:29.108Z,91.65
2023-01-29T22:27:55.766Z,91.52
2023-01-29T22:30:23.561Z,91.56
2023-01-29T22:32:50.653Z,91.40
2023-01-29T22:35:17.882Z,91.71
2023-01-29T22:37:45.443Z,92.31
2023-01-29T22:40:13.256Z,92.53
2023-01-29T22:42:40.317Z,92.62
2023-01-29T22:45:09.178Z,92.40
2023-01-29T22:47:36.017Z,92.62
2023-01-29T22:50:04.359Z,92.72
2023-01-29T22:52:38.622Z,92.27
2023-01-29T22:55:09.896Z,92.34
2023-01-29T22:57:37.293Z,92.25
2023-01-29T23:00:10.752Z,92.48
2023-01-29T23:02:37.505Z,92.87
2023-01-29T23:05:04.571Z,93.11
2023-01-29T23:07:31.201Z,93.18
2023-01-29T23:09:57.846Z,93.27
2023-01-29T23:12:24.628Z,93.35
2023-01-29T23:14:51.197Z,93.34
2023-01-29T23:17:17.851Z,93.59
2023-01-29T23:19:44.509Z,93.75
2023-01-29T23:22:11.223Z,93.66
2023-01-29T23:24:37.824Z,93.76
2023-01-29T23:27:16.743Z,93.96
2023-01-29T23:29:44.885Z,94.80
2023-01-29T23:32:15.111Z,95.19
2023-01-29T23:34:41.715Z,95.01
2023-01-29T23:37:08.579Z,95.29
2023-01-29T23:39:35.391Z,95.85
2023-01-29T23:42:02.106Z,95.82
2023-01-29T23:44:29.237Z,95.71
2023-01-29T23:46:55.921Z,95.91
2023-01-29T23:49:23.129Z,96.93
2023-01-29T23:51:50.670Z,98.33
2023-01-29T23:54:18.333Z,99.96
2023-01-29T23:56:45.620Z,100.00
2023-01-29T23:59:12.689Z,100.00
